ASA1819 PAJN-PASI
Flight info
| Callsign | ASA1819 |
|---|---|
| Flight time | 0h 28m |
| Altitude | 19000 |
| Route | RODMN1 RODMN DCT |
| Aircraft | B737/M-SDE2E3FGHIRWXY/LB1 |
Departure
| Time | 2026-04-30 01:09 |
|---|---|
| Airport | Juneau International Airport (PAJN) |
Arrival
| Time | 2026-04-30 01:37 |
|---|---|
| Airport | Sitka Rocky Gutierrez Airport (PASI) |
| Time | Latitude | Longitude | Altitude | Speed | Heading |
|---|---|---|---|---|---|
| 2026-04-30 00:48 | 58.35834 | -134.58367 | 33 ft | 0 kts | 36° |
| 2026-04-30 00:53 | 58.35834 | -134.58368 | 32 ft | 0 kts | 34° |
| 2026-04-30 00:54 | 58.35833 | -134.58369 | 34 ft | 0 kts | 28° |
| 2026-04-30 00:54 | 58.35832 | -134.58370 | 32 ft | 0 kts | 33° |
| 2026-04-30 00:56 | 58.35828 | -134.58375 | 30 ft | 3 kts | 33° |
| 2026-04-30 00:56 | 58.35812 | -134.58395 | 33 ft | 3 kts | 33° |
| 2026-04-30 00:56 | 58.35804 | -134.58406 | 33 ft | 0 kts | 23° |
| 2026-04-30 00:57 | 58.35808 | -134.58413 | 33 ft | 3 kts | 314° |
| 2026-04-30 00:57 | 58.35805 | -134.58469 | 33 ft | 4 kts | 264° |
| 2026-04-30 00:58 | 58.35804 | -134.58482 | 33 ft | 0 kts | 264° |
| 2026-04-30 01:05 | 58.35803 | -134.58495 | 42 ft | 3 kts | 262° |
| 2026-04-30 01:05 | 58.35799 | -134.58514 | 28 ft | 0 kts | 256° |
| 2026-04-30 01:06 | 58.35801 | -134.58541 | 33 ft | 6 kts | 278° |
| 2026-04-30 01:06 | 58.35812 | -134.58693 | 31 ft | 17 kts | 278° |
| 2026-04-30 01:06 | 58.35845 | -134.58935 | 33 ft | 13 kts | 285° |
| 2026-04-30 01:06 | 58.35819 | -134.59054 | 33 ft | 10 kts | 241° |
| 2026-04-30 01:07 | 58.35829 | -134.59210 | 32 ft | 13 kts | 285° |
| 2026-04-30 01:07 | 58.35853 | -134.59378 | 33 ft | 12 kts | 285° |
| 2026-04-30 01:07 | 58.35875 | -134.59534 | 33 ft | 13 kts | 281° |
| 2026-04-30 01:07 | 58.35834 | -134.59658 | 32 ft | 11 kts | 212° |
| 2026-04-30 01:08 | 58.35783 | -134.59706 | 34 ft | 1 kts | 166° |
| 2026-04-30 01:08 | 58.35779 | -134.59688 | 33 ft | 9 kts | 114° |
| 2026-04-30 01:08 | 58.35681 | -134.58992 | 35 ft | 100 kts | 105° |
| 2026-04-30 01:08 | 58.35435 | -134.57333 | 394 ft | 148 kts | 105° |
| 2026-04-30 01:09 | 58.35234 | -134.55271 | 1272 ft | 168 kts | 101° |
| 2026-04-30 01:09 | 58.35092 | -134.52973 | 2292 ft | 179 kts | 102° |
| 2026-04-30 01:09 | 58.34739 | -134.50651 | 3226 ft | 188 kts | 122° |
| 2026-04-30 01:09 | 58.33778 | -134.48890 | 3619 ft | 220 kts | 156° |
| 2026-04-30 01:10 | 58.31969 | -134.48868 | 2767 ft | 312 kts | 205° |
| 2026-04-30 01:10 | 58.30663 | -134.51691 | 4942 ft | 263 kts | 243° |
| 2026-04-30 01:10 | 58.29967 | -134.54815 | 6836 ft | 255 kts | 245° |
| 2026-04-30 01:10 | 58.29780 | -134.58179 | 8180 ft | 264 kts | 274° |
| 2026-04-30 01:11 | 58.30549 | -134.61412 | 9201 ft | 287 kts | 305° |
| 2026-04-30 01:11 | 58.32073 | -134.63991 | 9817 ft | 300 kts | 315° |
| 2026-04-30 01:11 | 58.33660 | -134.66482 | 10088 ft | 298 kts | 314° |
| 2026-04-30 01:11 | 58.35209 | -134.69321 | 10401 ft | 319 kts | 300° |
| 2026-04-30 01:12 | 58.36031 | -134.73274 | 10721 ft | 330 kts | 271° |
| 2026-04-30 01:12 | 58.36086 | -134.77727 | 11040 ft | 341 kts | 264° |
| 2026-04-30 01:12 | 58.36064 | -134.82268 | 11289 ft | 345 kts | 264° |
| 2026-04-30 01:12 | 58.35877 | -134.86786 | 11525 ft | 339 kts | 251° |
| 2026-04-30 01:13 | 58.34976 | -134.90858 | 11803 ft | 330 kts | 234° |
| 2026-04-30 01:13 | 58.33556 | -134.94242 | 12096 ft | 328 kts | 225° |
| 2026-04-30 01:13 | 58.31986 | -134.97424 | 12367 ft | 329 kts | 224° |
| 2026-04-30 01:13 | 58.30398 | -135.00559 | 12642 ft | 331 kts | 224° |
| 2026-04-30 01:14 | 58.28793 | -135.03732 | 12927 ft | 333 kts | 224° |
| 2026-04-30 01:14 | 58.27188 | -135.06932 | 13201 ft | 335 kts | 224° |
| 2026-04-30 01:14 | 58.25581 | -135.10154 | 13488 ft | 337 kts | 224° |
| 2026-04-30 01:14 | 58.23974 | -135.13389 | 13764 ft | 337 kts | 224° |
| 2026-04-30 01:15 | 58.22365 | -135.16634 | 14060 ft | 337 kts | 224° |
| 2026-04-30 01:15 | 58.20752 | -135.19881 | 14320 ft | 339 kts | 224° |
| 2026-04-30 01:15 | 58.19136 | -135.23131 | 14590 ft | 336 kts | 224° |
| 2026-04-30 01:15 | 58.17524 | -135.26368 | 14862 ft | 340 kts | 224° |
| 2026-04-30 01:16 | 58.15907 | -135.29682 | 15119 ft | 345 kts | 227° |
| 2026-04-30 01:16 | 58.14459 | -135.33288 | 14998 ft | 341 kts | 231° |
| 2026-04-30 01:16 | 58.13117 | -135.36885 | 14558 ft | 337 kts | 231° |
| 2026-04-30 01:16 | 58.11614 | -135.40181 | 13786 ft | 330 kts | 215° |
| 2026-04-30 01:17 | 58.09519 | -135.41854 | 12914 ft | 331 kts | 188° |
| 2026-04-30 01:17 | 58.07223 | -135.41813 | 12222 ft | 329 kts | 179° |
| 2026-04-30 01:17 | 58.04953 | -135.41566 | 11496 ft | 326 kts | 179° |
| 2026-04-30 01:17 | 58.02694 | -135.41368 | 10870 ft | 323 kts | 180° |
| 2026-04-30 01:18 | 58.00464 | -135.41193 | 10426 ft | 317 kts | 180° |
| 2026-04-30 01:18 | 57.98326 | -135.41026 | 10277 ft | 299 kts | 180° |
| 2026-04-30 01:18 | 57.96303 | -135.40880 | 10131 ft | 284 kts | 180° |
| 2026-04-30 01:18 | 57.94382 | -135.40740 | 9968 ft | 269 kts | 180° |
| 2026-04-30 01:19 | 57.92558 | -135.40613 | 9820 ft | 256 kts | 180° |
| 2026-04-30 01:19 | 57.90802 | -135.40582 | 9670 ft | 249 kts | 182° |
| 2026-04-30 01:19 | 57.89076 | -135.40601 | 9570 ft | 248 kts | 182° |
| 2026-04-30 01:19 | 57.87356 | -135.40643 | 9444 ft | 246 kts | 183° |
| 2026-04-30 01:20 | 57.85638 | -135.40704 | 9327 ft | 248 kts | 182° |
| 2026-04-30 01:20 | 57.83908 | -135.40761 | 9178 ft | 248 kts | 183° |
| 2026-04-30 01:20 | 57.82161 | -135.40812 | 9062 ft | 254 kts | 182° |
| 2026-04-30 01:20 | 57.80396 | -135.40867 | 9019 ft | 251 kts | 183° |
| 2026-04-30 01:21 | 57.78657 | -135.40934 | 8928 ft | 249 kts | 181° |
| 2026-04-30 01:21 | 57.76958 | -135.40864 | 8972 ft | 242 kts | 182° |
| 2026-04-30 01:21 | 57.75305 | -135.41003 | 9014 ft | 234 kts | 186° |
| 2026-04-30 01:21 | 57.73669 | -135.41194 | 9006 ft | 239 kts | 184° |
| 2026-04-30 01:22 | 57.72012 | -135.41051 | 9045 ft | 239 kts | 169° |
| 2026-04-30 01:22 | 57.70369 | -135.40545 | 9000 ft | 238 kts | 183° |
| 2026-04-30 01:22 | 57.68723 | -135.40668 | 8995 ft | 236 kts | 184° |
| 2026-04-30 01:22 | 57.67088 | -135.40728 | 9001 ft | 235 kts | 183° |
| 2026-04-30 01:23 | 57.65461 | -135.40838 | 8995 ft | 233 kts | 183° |
| 2026-04-30 01:23 | 57.63844 | -135.40880 | 8994 ft | 232 kts | 183° |
| 2026-04-30 01:23 | 57.62225 | -135.40908 | 8998 ft | 235 kts | 182° |
| 2026-04-30 01:23 | 57.60577 | -135.40938 | 9024 ft | 239 kts | 182° |
| 2026-04-30 01:24 | 57.58809 | -135.40982 | 9048 ft | 273 kts | 182° |
| 2026-04-30 01:24 | 57.56863 | -135.41045 | 9010 ft | 281 kts | 182° |
| 2026-04-30 01:24 | 57.54941 | -135.40867 | 8973 ft | 275 kts | 167° |
| 2026-04-30 01:24 | 57.53225 | -135.39487 | 8982 ft | 261 kts | 162° |
| 2026-04-30 01:25 | 57.51541 | -135.38577 | 8972 ft | 245 kts | 172° |
| 2026-04-30 01:25 | 57.49900 | -135.38136 | 8999 ft | 233 kts | 176° |
| 2026-04-30 01:25 | 57.48307 | -135.37898 | 9008 ft | 228 kts | 179° |
| 2026-04-30 01:25 | 57.46706 | -135.38015 | 8989 ft | 234 kts | 197° |
| 2026-04-30 01:26 | 57.45221 | -135.39275 | 9006 ft | 236 kts | 207° |
| 2026-04-30 01:26 | 57.43842 | -135.40805 | 8993 ft | 224 kts | 210° |
| 2026-04-30 01:26 | 57.42560 | -135.42284 | 8846 ft | 214 kts | 209° |
| 2026-04-30 01:26 | 57.41287 | -135.43750 | 8546 ft | 208 kts | 209° |
| 2026-04-30 01:27 | 57.40214 | -135.45435 | 8309 ft | 203 kts | 234° |
| 2026-04-30 01:27 | 57.39383 | -135.47302 | 8415 ft | 175 kts | 218° |
| 2026-04-30 01:27 | 57.38444 | -135.48802 | 7761 ft | 191 kts | 210° |
| 2026-04-30 01:27 | 57.37232 | -135.50033 | 7384 ft | 195 kts | 207° |
| 2026-04-30 01:28 | 57.36061 | -135.51102 | 7175 ft | 190 kts | 204° |
| 2026-04-30 01:28 | 57.34877 | -135.52177 | 6896 ft | 187 kts | 203° |
| 2026-04-30 01:28 | 57.33746 | -135.53193 | 6717 ft | 179 kts | 205° |
| 2026-04-30 01:28 | 57.32605 | -135.54249 | 6101 ft | 190 kts | 202° |
| 2026-04-30 01:29 | 57.31384 | -135.55334 | 5656 ft | 195 kts | 205° |
| 2026-04-30 01:29 | 57.30230 | -135.56473 | 5524 ft | 181 kts | 205° |
| 2026-04-30 01:29 | 57.29106 | -135.57521 | 5127 ft | 183 kts | 204° |
| 2026-04-30 01:29 | 57.27984 | -135.58614 | 4829 ft | 178 kts | 206° |
| 2026-04-30 01:30 | 57.26955 | -135.59626 | 4782 ft | 159 kts | 204° |
| 2026-04-30 01:30 | 57.26001 | -135.60570 | 4472 ft | 154 kts | 204° |
| 2026-04-30 01:30 | 57.25053 | -135.61461 | 4182 ft | 150 kts | 200° |
| 2026-04-30 01:30 | 57.24126 | -135.62179 | 4007 ft | 144 kts | 200° |
| 2026-04-30 01:31 | 57.23192 | -135.62902 | 4174 ft | 147 kts | 189° |
| 2026-04-30 01:31 | 57.22179 | -135.62696 | 4236 ft | 144 kts | 171° |
| 2026-04-30 01:31 | 57.21182 | -135.62492 | 4277 ft | 147 kts | 176° |
| 2026-04-30 01:31 | 57.20167 | -135.62192 | 4164 ft | 147 kts | 162° |
| 2026-04-30 01:32 | 57.19284 | -135.61064 | 3938 ft | 165 kts | 130° |
| 2026-04-30 01:32 | 57.18538 | -135.59653 | 4023 ft | 145 kts | 144° |
| 2026-04-30 01:32 | 57.17788 | -135.58416 | 3674 ft | 144 kts | 148° |
| 2026-04-30 01:32 | 57.16985 | -135.57376 | 3243 ft | 142 kts | 146° |
| 2026-04-30 01:33 | 57.16273 | -135.56263 | 3103 ft | 125 kts | 146° |
| 2026-04-30 01:33 | 57.15622 | -135.55267 | 3054 ft | 124 kts | 147° |
| 2026-04-30 01:33 | 57.14953 | -135.54245 | 3190 ft | 122 kts | 142° |
| 2026-04-30 01:33 | 57.14341 | -135.53227 | 3489 ft | 116 kts | 149° |
| 2026-04-30 01:34 | 57.13692 | -135.52271 | 3605 ft | 128 kts | 146° |
| 2026-04-30 01:34 | 57.13022 | -135.51195 | 3409 ft | 128 kts | 143° |
| 2026-04-30 01:34 | 57.12384 | -135.50073 | 3043 ft | 127 kts | 141° |
| 2026-04-30 01:34 | 57.11728 | -135.48970 | 2504 ft | 127 kts | 139° |
| 2026-04-30 01:35 | 57.11115 | -135.47782 | 1847 ft | 128 kts | 131° |
| 2026-04-30 01:35 | 57.10550 | -135.46578 | 1487 ft | 123 kts | 127° |
| 2026-04-30 01:35 | 57.09990 | -135.45425 | 1141 ft | 121 kts | 138° |
| 2026-04-30 01:35 | 57.09374 | -135.44353 | 865 ft | 123 kts | 136° |
| 2026-04-30 01:36 | 57.08757 | -135.43247 | 562 ft | 125 kts | 136° |
| 2026-04-30 01:36 | 57.08165 | -135.42156 | 474 ft | 124 kts | 134° |
| 2026-04-30 01:36 | 57.07539 | -135.41073 | 450 ft | 125 kts | 139° |
| 2026-04-30 01:36 | 57.06868 | -135.40022 | 405 ft | 126 kts | 140° |
| 2026-04-30 01:37 | 57.06244 | -135.38940 | 342 ft | 120 kts | 135° |
| 2026-04-30 01:37 | 57.05645 | -135.37862 | 160 ft | 122 kts | 136° |
| 2026-04-30 01:37 | 57.05056 | -135.36790 | 36 ft | 118 kts | 136° |
| 2026-04-30 01:37 | 57.04620 | -135.35999 | 36 ft | 43 kts | 134° |
| 2026-04-30 01:38 | 57.04420 | -135.35641 | 34 ft | 34 kts | 136° |
| 2026-04-30 01:38 | 57.04343 | -135.35539 | 33 ft | 6 kts | 150° |
| 2026-04-30 01:38 | 57.04342 | -135.35520 | 34 ft | 4 kts | 69° |
| 2026-04-30 01:38 | 57.04401 | -135.35587 | 34 ft | 15 kts | 315° |
| 2026-04-30 01:39 | 57.04472 | -135.35728 | 33 ft | 16 kts | 313° |
| 2026-04-30 01:39 | 57.04551 | -135.35881 | 32 ft | 17 kts | 314° |
| 2026-04-30 01:39 | 57.04648 | -135.36054 | 36 ft | 19 kts | 316° |
| 2026-04-30 01:39 | 57.04747 | -135.36226 | 37 ft | 20 kts | 316° |
| 2026-04-30 01:40 | 57.04866 | -135.36308 | 34 ft | 21 kts | 359° |
| 2026-04-30 01:40 | 57.04993 | -135.36388 | 33 ft | 18 kts | 317° |
| 2026-04-30 01:40 | 57.05075 | -135.36536 | 33 ft | 15 kts | 315° |
| 2026-04-30 01:40 | 57.05143 | -135.36659 | 33 ft | 11 kts | 315° |
| 2026-04-30 01:41 | 57.05196 | -135.36722 | 34 ft | 8 kts | 358° |
| 2026-04-30 01:41 | 57.05227 | -135.36657 | 33 ft | 5 kts | 74° |
| 2026-04-30 01:41 | 57.05233 | -135.36621 | 34 ft | 1 kts | 76° |
| 2026-04-30 01:41 | 57.05235 | -135.36602 | 34 ft | 0 kts | 76° |